Time;durP1;ratioP1;P1;durP2;ratioP2;P2;SDS_P1;SDS_P2;PMS_P1;PMS_P2;Temp;Humidity;BMP_temperature;BMP_pressure;BME280_temperature;BME280_humidity;BME280_pressure;Samples;Min_cycle;Max_cycle;Signal;HPM_P1;HPM_P2
2021/11/14 00:01:09;;;;;;;26.63;20.10;;;8.50;99.90;;;8.64;75.28;97503.91;5057345;28;20048;-39
2021/11/14 00:03:40;;;;;;;25.57;20.90;;;8.50;99.90;;;8.63;75.38;97504.91;5058749;28;20045;-39
2021/11/14 00:06:10;;;;;;;25.07;19.13;;;8.50;99.90;;;8.60;75.31;97496.44;5057121;28;20051;-39
2021/11/14 00:08:39;;;;;;;22.97;16.73;;;8.50;99.90;;;8.60;75.40;97499.09;5058854;28;20061;-39
2021/11/14 00:11:13;;;;;;;23.50;18.50;;;8.50;99.90;;;8.59;75.35;97500.09;5050769;28;20051;-39
2021/11/14 00:13:44;;;;;;;24.73;19.07;;;8.40;99.90;;;8.56;75.40;97497.72;5056035;28;20373;-39
2021/11/14 00:16:16;;;;;;;31.67;23.53;;;8.40;99.90;;;8.53;75.26;97503.31;5058606;28;20045;-39
2021/11/14 00:18:45;;;;;;;29.17;21.97;;;8.40;99.90;;;8.52;75.29;97506.97;5058244;28;20049;-39
2021/11/14 00:21:17;;;;;;;27.03;19.93;;;8.30;99.90;;;8.50;75.26;97504.47;5057659;28;20067;-39
2021/11/14 00:23:47;;;;;;;27.43;18.77;;;8.30;99.90;;;8.51;75.24;97505.28;5057335;28;20047;-39
2021/11/14 00:26:16;;;;;;;27.33;19.73;;;8.40;99.90;;;8.52;75.27;97499.00;5055781;28;20074;-39
2021/11/14 00:28:46;;;;;;;28.53;19.07;;;8.40;99.90;;;8.51;75.32;97498.19;5056802;28;20055;-39
2021/11/14 00:31:20;;;;;;;30.83;21.57;;;8.40;99.90;;;8.49;75.23;97497.47;5055472;28;20338;-39
2021/11/14 00:33:50;;;;;;;25.30;18.87;;;8.30;99.90;;;8.47;75.34;97497.66;5057536;28;20048;-39
2021/11/14 00:36:23;;;;;;;26.53;18.67;;;8.30;99.90;;;8.48;75.33;97501.13;5058462;28;20059;-39
2021/11/14 00:38:52;;;;;;;24.57;19.73;;;8.30;99.90;;;8.47;75.28;97500.31;5057553;28;20413;-39
2021/11/14 00:41:23;;;;;;;25.27;19.20;;;8.30;99.90;;;8.46;75.21;97495.97;5057951;28;20060;-39
2021/11/14 00:43:53;;;;;;;29.07;20.60;;;8.30;99.90;;;8.47;75.30;97494.16;5058319;28;20052;-39
2021/11/14 00:46:22;;;;;;;24.27;18.07;;;8.30;99.90;;;8.48;75.45;97496.66;5058425;28;20325;-38
2021/11/14 00:48:52;;;;;;;21.83;16.67;;;8.30;99.90;;;8.49;75.18;97497.47;5057805;28;20035;-38
2021/11/14 00:51:28;;;;;;;22.83;16.77;;;8.30;99.90;;;8.50;75.20;97503.63;5057326;28;20367;-39
2021/11/14 00:54:01;;;;;;;22.90;17.70;;;8.40;99.90;;;8.49;75.55;97500.13;5058312;28;20084;-38
2021/11/14 00:56:31;;;;;;;21.27;17.00;;;8.30;99.90;;;8.47;75.33;97500.31;5058188;28;20041;-38
2021/11/14 00:58:59;;;;;;;20.63;16.00;;;8.30;99.90;;;8.48;75.46;97499.31;5058042;28;20049;-38
2021/11/14 01:01:28;;;;;;;19.67;15.97;;;8.40;99.90;;;8.50;75.41;97496.50;5057998;28;20057;-38
2021/11/14 01:03:57;;;;;;;23.40;16.10;;;8.40;99.90;;;8.51;75.62;97497.34;5062155;28;20355;-38
2021/11/14 01:06:26;;;;;;;21.60;14.50;;;8.40;99.90;;;8.53;75.53;97500.66;5060799;28;20250;-38
2021/11/14 01:08:54;;;;;;;19.47;14.20;;;8.40;99.90;;;8.55;75.57;97509.31;5061238;28;20051;-38
2021/11/14 01:11:22;;;;;;;17.93;14.23;;;8.50;99.90;;;8.55;75.52;97506.66;5058408;28;20076;-39
2021/11/14 01:13:51;;;;;;;17.07;13.43;;;8.40;99.90;;;8.54;75.40;97508.47;5060992;28;20071;-39
2021/11/14 01:16:23;;;;;;;21.30;15.97;;;8.40;99.90;;;8.54;75.36;97505.81;5061840;28;20056;-39
2021/11/14 01:18:53;;;;;;;20.57;14.70;;;8.40;99.90;;;8.54;75.38;97507.66;5061844;28;20052;-39
2021/11/14 01:21:24;;;;;;;18.17;14.87;;;8.40;99.90;;;8.54;75.56;97512.97;5061096;28;20258;-38
2021/11/14 01:23:55;;;;;;;16.90;13.73;;;8.40;99.90;;;8.56;75.46;97518.94;5060915;28;20041;-39
2021/11/14 01:26:23;;;;;;;20.07;13.97;;;8.40;99.90;;;8.57;75.55;97523.25;5060670;28;20047;-39
2021/11/14 01:28:51;;;;;;;21.10;15.67;;;8.40;99.90;;;8.57;75.43;97515.28;5060325;28;20390;-39
2021/11/14 01:31:20;;;;;;;21.20;15.60;;;8.40;99.90;;;8.56;75.37;97518.94;5061756;28;20053;-39
2021/11/14 01:33:49;;;;;;;18.03;14.37;;;8.40;99.90;;;8.56;75.54;97519.78;5061407;28;20264;-39
2021/11/14 01:36:17;;;;;;;19.60;15.13;;;8.40;99.90;;;8.55;75.61;97519.91;5061404;28;20351;-38
2021/11/14 01:38:47;;;;;;;20.03;15.50;;;8.40;99.90;;;8.55;75.50;97525.22;5061743;28;20097;-39
2021/11/14 01:41:16;;;;;;;23.57;16.27;;;8.40;99.90;;;8.54;75.38;97512.97;5061064;28;20385;-39
2021/11/14 01:43:50;;;;;;;22.13;16.70;;;8.40;99.90;;;8.54;75.53;97520.91;5060640;28;20061;-39
2021/11/14 01:46:20;;;;;;;26.00;16.70;;;8.40;99.90;;;8.55;75.55;97523.44;5060428;28;20045;-40
2021/11/14 01:48:50;;;;;;;22.20;16.30;;;8.40;99.90;;;8.55;75.40;97522.56;5059408;28;20041;-40
2021/11/14 01:51:20;;;;;;;24.60;17.47;;;8.40;99.90;;;8.55;75.37;97526.09;5060726;28;20055;-40
2021/11/14 01:53:50;;;;;;;27.13;18.43;;;8.40;99.90;;;8.55;75.54;97525.22;5061077;28;20047;-40
2021/11/14 01:56:21;;;;;;;24.37;18.00;;;8.40;99.90;;;8.55;75.46;97517.25;5061171;28;20063;-39
2021/11/14 01:58:50;;;;;;;27.17;19.43;;;8.40;99.90;;;8.55;75.63;97514.63;5061325;28;20059;-40
2021/11/14 02:01:30;;;;;;;30.73;17.80;;;8.40;99.90;;;8.54;75.48;97519.09;5060299;28;20056;-41
2021/11/14 02:04:05;;;;;;;26.23;18.07;;;8.40;99.90;;;8.54;75.48;97520.91;5059692;28;20048;-39
2021/11/14 02:06:36;;;;;;;25.03;18.33;;;8.40;99.90;;;8.53;75.45;97519.25;5075320;28;20064;-40
2021/11/14 02:09:07;;;;;;;26.20;18.27;;;8.40;99.90;;;8.51;75.54;97514.09;5060528;28;20045;-39
2021/11/14 02:11:37;;;;;;;26.43;18.87;;;8.40;99.90;;;8.52;75.45;97521.06;5057428;28;20056;-40
2021/11/14 02:14:05;;;;;;;28.97;19.07;;;8.40;99.90;;;8.52;75.47;97512.28;5056601;28;20044;-39
2021/11/14 02:16:33;;;;;;;28.60;19.40;;;8.40;99.90;;;8.52;75.44;97514.94;5058689;28;20053;-39
2021/11/14 02:19:02;;;;;;;30.40;20.97;;;8.40;99.90;;;8.50;75.53;97517.72;5060399;28;20071;-39
2021/11/14 02:21:31;;;;;;;30.60;21.80;;;8.40;99.90;;;8.51;75.39;97508.81;5060331;28;20239;-39
2021/11/14 02:24:00;;;;;;;29.93;21.07;;;8.40;99.90;;;8.53;75.51;97513.94;5057707;28;20255;-40
2021/11/14 02:26:28;;;;;;;32.83;24.57;;;8.40;99.90;;;8.53;75.40;97508.63;5059574;28;20049;-39
2021/11/14 02:28:57;;;;;;;35.63;25.37;;;8.40;99.90;;;8.54;75.65;97507.66;5060420;28;20045;-39
2021/11/14 02:31:28;;;;;;;33.17;21.90;;;8.40;99.90;;;8.53;75.24;97508.63;5060236;28;20308;-39
2021/11/14 02:33:58;;;;;;;33.97;21.73;;;8.40;99.90;;;8.52;75.50;97513.09;5060836;28;20041;-39
2021/11/14 02:36:26;;;;;;;30.57;21.23;;;8.40;99.90;;;8.51;75.28;97511.44;5060828;28;20045;-39
2021/11/14 02:38:55;;;;;;;26.93;21.63;;;8.40;99.90;;;8.52;75.29;97514.94;5060525;28;20071;-39
2021/11/14 02:41:24;;;;;;;29.37;19.80;;;8.40;99.90;;;8.53;75.44;97520.09;5059390;28;20061;-39
2021/11/14 02:43:54;;;;;;;26.07;18.70;;;8.40;99.90;;;8.54;75.34;97512.97;5060204;28;20048;-39
2021/11/14 02:46:23;;;;;;;26.43;18.93;;;8.40;99.90;;;8.54;75.62;97515.63;5060187;28;20052;-39
2021/11/14 02:48:52;;;;;;;25.27;19.53;;;8.40;99.90;;;8.52;75.60;97512.28;5060095;28;20397;-39
2021/11/14 02:51:26;;;;;;;28.57;19.67;;;8.40;99.90;;;8.52;75.51;97514.94;5059678;28;20059;-39
2021/11/14 02:53:56;;;;;;;29.17;20.25;;;8.40;99.90;;;8.52;75.45;97523.72;5060030;28;20053;-39
2021/11/14 02:56:24;;;;;;;30.07;19.33;;;8.40;99.90;;;8.54;75.40;97526.22;5059855;28;20052;-39
2021/11/14 02:58:53;;;;;;;24.23;17.77;;;8.40;99.90;;;8.54;75.50;97519.09;5059834;28;20266;-39
2021/11/14 03:01:40;;;;;;;26.13;20.33;;;8.40;99.90;;;8.54;75.37;97519.09;5057834;28;20056;-39
2021/11/14 03:04:17;;;;;;;29.20;20.50;;;8.40;99.90;;;8.56;75.53;97517.13;5059820;28;20057;-39
2021/11/14 03:06:48;;;;;;;26.70;18.30;;;8.40;99.90;;;8.57;75.48;97524.09;5059911;28;20048;-39
2021/11/14 03:09:17;;;;;;;25.57;17.43;;;8.50;99.90;;;8.57;75.42;97526.75;5059638;28;20045;-39
2021/11/14 03:11:45;;;;;;;28.07;17.40;;;8.50;99.90;;;8.59;75.48;97524.78;5058622;28;20270;-39
2021/11/14 03:14:14;;;;;;;25.53;18.63;;;8.50;99.90;;;8.60;75.71;97529.09;5055966;28;20361;-39
2021/11/14 03:16:42;;;;;;;25.30;18.57;;;8.50;99.90;;;8.60;75.49;97533.56;5059106;28;20071;-39
2021/11/14 03:19:12;;;;;;;25.40;17.97;;;8.50;99.90;;;8.63;75.65;97538.59;5059355;28;20041;-39
2021/11/14 03:21:41;;;;;;;24.50;17.70;;;8.50;99.90;;;8.62;75.59;97528.94;5058688;28;20044;-39
2021/11/14 03:24:09;;;;;;;24.60;18.33;;;8.50;99.90;;;8.62;75.54;97537.75;5058645;28;20049;-39
2021/11/14 03:26:38;;;;;;;27.07;18.70;;;8.50;99.90;;;8.61;75.66;97533.44;5059745;28;20255;-39
2021/11/14 03:29:08;;;;;;;25.80;17.27;;;8.50;99.90;;;8.61;75.47;97530.78;5059247;28;20029;-39
2021/11/14 03:31:37;;;;;;;25.23;17.43;;;8.50;99.90;;;8.61;75.43;97532.59;5058831;28;20052;-39
2021/11/14 03:34:06;;;;;;;26.10;18.07;;;8.50;99.90;;;8.60;75.47;97534.41;5059491;28;20037;-39
2021/11/14 03:36:34;;;;;;;24.67;17.13;;;8.50;99.90;;;8.61;75.65;97533.44;5059260;28;20053;-39
2021/11/14 03:39:06;;;;;;;26.13;18.00;;;8.50;99.90;;;8.60;75.33;97531.75;5058938;28;20347;-39
2021/11/14 03:41:39;;;;;;;27.50;17.83;;;8.50;99.90;;;8.59;75.50;97534.56;5058736;28;20055;-39
2021/11/14 03:44:10;;;;;;;23.75;16.75;;;8.40;99.90;;;8.58;75.54;97535.56;5059086;28;20045;-39
2021/11/14 03:46:39;;;;;;;29.33;18.13;;;8.40;99.90;;;8.59;75.85;97539.88;5057909;28;20052;-39
2021/11/14 03:49:08;;;;;;;23.93;16.43;;;8.40;99.90;;;8.57;75.45;97534.72;5058682;28;20044;-39
2021/11/14 03:51:36;;;;;;;28.37;17.60;;;8.40;99.90;;;8.56;75.26;97543.66;5058696;28;20045;-39
2021/11/14 03:54:05;;;;;;;24.73;16.97;;;8.40;99.90;;;8.56;75.31;97553.44;5058829;28;20347;-39
2021/11/14 03:56:34;;;;;;;27.00;17.33;;;8.40;99.90;;;8.54;75.31;97542.97;5059193;28;20053;-39
2021/11/14 03:59:03;;;;;;;24.33;17.17;;;8.40;99.90;;;8.53;75.36;97548.44;5058955;28;20063;-39
2021/11/14 04:01:31;;;;;;;31.30;19.23;;;8.40;99.90;;;8.51;75.60;97540.63;5057551;28;20048;-39
2021/11/14 04:04:00;;;;;;;29.33;18.30;;;8.40;99.90;;;8.51;75.42;97551.25;5057920;28;20060;-39
2021/11/14 04:06:29;;;;;;;33.37;19.27;;;8.40;99.90;;;8.51;75.42;97550.41;5058761;28;20045;-39
2021/11/14 04:08:59;;;;;;;30.40;20.47;;;8.40;99.90;;;8.50;75.34;97549.56;5058936;28;20246;-39
2021/11/14 04:11:28;;;;;;;31.67;20.53;;;8.40;99.90;;;8.50;75.50;97551.41;5058455;28;20064;-39
2021/11/14 04:13:57;;;;;;;28.03;20.37;;;8.30;99.90;;;8.47;75.42;97548.06;5056398;28;20049;-39
2021/11/14 04:16:25;;;;;;;30.57;19.47;;;8.30;99.90;;;8.46;75.44;97551.69;5056505;28;20044;-39
2021/11/14 04:18:54;;;;;;;27.20;18.47;;;8.30;99.90;;;8.46;75.52;97553.50;5058133;28;20052;-39
2021/11/14 04:21:23;;;;;;;26.97;18.20;;;8.30;99.90;;;8.46;75.52;97545.56;5058495;28;20083;-38
2021/11/14 04:23:53;;;;;;;32.60;19.97;;;8.30;99.90;;;8.48;75.47;97552.38;5058027;28;20882;-38
2021/11/14 04:26:22;;;;;;;29.37;19.80;;;8.30;99.90;;;8.48;75.49;97549.72;5058908;28;20259;-38
2021/11/14 04:28:51;;;;;;;37.33;23.17;;;8.30;99.90;;;8.47;75.49;97550.72;5058251;28;20056;-39
2021/11/14 04:31:20;;;;;;;38.10;21.03;;;8.40;99.90;;;8.48;75.27;97552.38;5058138;28;20047;-38
2021/11/14 04:33:48;;;;;;;40.80;22.03;;;8.40;99.90;;;8.48;75.49;97557.66;5058907;28;20063;-38
2021/11/14 04:36:17;;;;;;;36.93;21.87;;;8.40;99.90;;;8.47;75.52;97556.03;5058412;28;20049;-38
2021/11/14 04:38:45;;;;;;;30.47;19.57;;;8.30;99.90;;;8.48;75.51;97562.97;5063355;28;20053;-38
2021/11/14 04:41:14;;;;;;;29.17;19.37;;;8.40;99.90;;;8.51;75.63;97566.31;5062209;28;20373;-39
2021/11/14 04:43:43;;;;;;;29.43;18.93;;;8.30;99.90;;;8.50;75.52;97565.50;5062451;28;20059;-38
2021/11/14 04:46:11;;;;;;;29.17;18.23;;;8.40;99.90;;;8.51;75.68;97564.53;5077372;28;20051;-38
2021/11/14 04:48:41;;;;;;;35.53;20.20;;;8.40;99.90;;;8.51;75.69;97575.13;5060397;28;20041;-38
2021/11/14 04:51:10;;;;;;;32.87;19.87;;;8.40;99.90;;;8.51;75.59;97580.44;5062223;28;20110;-39
2021/11/14 04:53:38;;;;;;;38.03;20.57;;;8.40;99.90;;;8.51;75.68;97574.28;5062918;28;20082;-39
2021/11/14 04:56:07;;;;;;;40.00;19.90;;;8.40;99.90;;;8.51;75.62;97582.25;5061215;28;20261;-39
2021/11/14 04:58:35;;;;;;;36.60;20.73;;;8.40;99.90;;;8.51;75.50;97587.53;5061511;28;20037;-39
2021/11/14 05:01:04;;;;;;;44.27;23.03;;;8.30;99.90;;;8.50;75.56;97588.53;5062007;28;20067;-38
2021/11/14 05:03:32;;;;;;;36.10;20.70;;;8.40;99.90;;;8.49;75.50;97585.03;5062158;28;20045;-38
2021/11/14 05:06:00;;;;;;;73.60;24.40;;;8.40;99.90;;;8.48;75.51;97586.84;5061127;28;20060;-39
2021/11/14 05:08:29;;;;;;;46.10;20.97;;;8.30;99.90;;;8.47;75.42;97598.47;5061974;28;20355;-38
2021/11/14 05:10:58;;;;;;;45.53;22.77;;;8.30;99.90;;;8.47;75.55;97597.63;5062088;28;20245;-38
2021/11/14 05:13:27;;;;;;;78.60;25.13;;;8.40;99.90;;;8.47;75.57;97594.97;5077498;28;20039;-39
2021/11/14 05:15:56;;;;;;;67.63;23.30;;;8.30;99.90;;;8.46;75.71;97596.78;5055674;28;20239;-38
2021/11/14 05:18:24;;;;;;;46.93;22.13;;;8.30;99.90;;;8.46;75.49;97598.63;5061148;28;20063;-38
2021/11/14 05:20:53;;;;;;;43.23;23.87;;;8.30;99.90;;;8.46;75.45;97598.63;5061196;28;20052;-38
2021/11/14 05:23:21;;;;;;;39.37;23.17;;;8.30;99.90;;;8.47;75.57;97598.47;5061312;28;20336;-38
2021/11/14 05:25:50;;;;;;;36.03;20.27;;;8.30;99.90;;;8.49;75.75;97600.94;5059791;28;20055;-39
2021/11/14 05:28:18;;;;;;;38.43;22.53;;;8.40;99.90;;;8.48;75.66;97605.44;5062000;28;20095;-39
2021/11/14 05:30:47;;;;;;;35.13;21.87;;;8.40;99.90;;;8.51;75.64;97608.78;5060311;28;20045;-39
2021/11/14 05:33:16;;;;;;;30.80;23.73;;;8.30;99.90;;;8.50;75.52;97613.25;5061315;28;20055;-39
2021/11/14 05:35:45;;;;;;;31.70;21.13;;;8.30;99.90;;;8.48;75.56;97615.22;5061444;28;20279;-39
2021/11/14 05:38:14;;;;;;;32.23;21.23;;;8.40;99.90;;;8.46;75.48;97615.38;5061906;28;20051;-39
2021/11/14 05:40:43;;;;;;;33.40;20.93;;;8.30;99.90;;;8.47;75.58;97618.84;5061558;28;20245;-39
2021/11/14 05:43:12;;;;;;;41.23;26.40;;;8.30;99.90;;;8.45;75.79;97624.31;5060963;28;20055;-39
2021/11/14 05:45:42;;;;;;;76.50;43.07;;;8.30;99.90;;;8.46;75.63;97631.28;5061188;28;20048;-39
2021/11/14 05:48:12;;;;;;;68.87;38.60;;;8.30;99.90;;;8.47;75.75;97624.16;5060419;28;20059;-39
2021/11/14 05:50:42;;;;;;;48.27;28.60;;;8.30;99.90;;;8.47;75.74;97625.00;5061068;28;20374;-39
2021/11/14 05:53:10;;;;;;;42.73;27.00;;;8.30;99.90;;;8.46;75.85;97633.94;5060701;28;20041;-39
2021/11/14 05:55:38;;;;;;;41.13;21.97;;;8.30;99.90;;;8.47;75.83;97632.97;5061186;28;20045;-39
2021/11/14 05:58:11;;;;;;;28.07;18.83;;;8.30;99.90;;;8.47;75.83;97637.41;5061105;28;20043;-39
2021/11/14 06:00:49;;;;;;;30.87;18.07;;;8.30;99.90;;;8.47;75.64;97646.22;5060943;28;20057;-39
2021/11/14 06:03:41;;;;;;;26.63;17.03;;;8.30;99.90;;;8.45;75.62;97645.53;5061145;28;20327;-39
2021/11/14 06:06:10;;;;;;;29.77;18.57;;;8.30;99.90;;;8.47;75.50;97645.38;5061096;28;20248;-39
2021/11/14 06:08:38;;;;;;;26.73;18.50;;;8.30;99.90;;;8.47;75.55;97642.72;5060960;28;20063;-40
2021/11/14 06:11:07;;;;;;;35.53;20.17;;;8.40;99.90;;;8.49;75.57;97643.41;5058095;28;20051;-39
2021/11/14 06:13:36;;;;;;;28.63;18.87;;;8.40;99.90;;;8.48;75.72;97647.88;5059788;28;20037;-39
2021/11/14 06:16:04;;;;;;;27.10;17.97;;;8.30;99.90;;;8.49;75.73;97651.38;5057669;28;20049;-39
2021/11/14 06:18:33;;;;;;;29.90;18.73;;;8.40;99.90;;;8.48;75.79;97655.84;5056613;28;20051;-40
2021/11/14 06:21:03;;;;;;;29.53;19.53;;;8.30;99.90;;;8.48;75.75;97663.81;5059386;28;20041;-40
2021/11/14 06:23:31;;;;;;;30.77;18.80;;;8.30;99.90;;;8.47;75.68;97654.19;5058606;28;20455;-39
2021/11/14 06:26:00;;;;;;;32.83;19.40;;;8.30;99.90;;;8.48;75.72;97655.84;5058944;28;20063;-39
2021/11/14 06:28:29;;;;;;;36.73;21.80;;;8.30;99.90;;;8.47;75.73;97656.84;5060694;28;20048;-40
2021/11/14 06:30:57;;;;;;;34.33;21.87;;;8.30;99.90;;;8.47;75.63;97656.84;5060104;28;20045;-40
2021/11/14 06:33:26;;;;;;;35.60;23.33;;;8.30;99.90;;;8.47;75.71;97661.28;5060585;28;20053;-39
2021/11/14 06:35:55;;;;;;;35.77;20.97;;;8.30;99.90;;;8.48;75.64;97655.84;5060375;28;20049;-39
2021/11/14 06:38:24;;;;;;;29.73;19.03;;;8.30;99.90;;;8.47;75.73;97655.97;5059334;28;20059;-39
2021/11/14 06:40:53;;;;;;;31.00;18.13;;;8.30;99.90;;;8.46;75.53;97662.28;5060071;28;20053;-39
2021/11/14 06:43:22;;;;;;;31.03;18.53;;;8.30;99.90;;;8.44;75.62;97673.03;5058895;28;20359;-46
2021/11/14 06:45:50;;;;;;;29.97;18.13;;;8.20;99.90;;;8.43;75.67;97670.53;5059609;28;20048;-39
2021/11/14 06:48:19;;;;;;;31.80;18.67;;;8.20;99.90;;;8.43;75.73;97684.66;5060322;28;20323;-39
2021/11/14 06:50:48;;;;;;;38.60;23.13;;;8.30;99.90;;;8.47;75.85;97682.50;5060344;28;20044;-44
2021/11/14 06:53:17;;;;;;;47.57;28.73;;;8.30;99.90;;;8.50;75.98;97684.88;5059404;28;20049;-44
2021/11/14 06:55:45;;;;;;;35.17;23.93;;;8.40;99.90;;;8.52;75.83;97687.41;5060073;28;20052;-44
2021/11/14 06:58:14;;;;;;;32.10;19.60;;;8.40;99.90;;;8.54;75.98;97690.75;5060020;28;20049;-44
2021/11/14 07:00:43;;;;;;;26.83;18.93;;;8.40;99.90;;;8.55;75.75;97687.94;5058678;28;20053;-45
2021/11/14 07:03:14;;;;;;;24.53;16.30;;;8.40;99.90;;;8.57;75.95;97695.72;5057687;28;20056;-44
2021/11/14 07:05:42;;;;;;;25.27;16.30;;;8.40;99.90;;;8.60;75.84;97695.44;5058612;28;20048;-43
2021/11/14 07:08:11;;;;;;;27.60;15.90;;;8.50;99.90;;;8.64;75.72;97702.13;5059856;28;20049;-43
2021/11/14 07:10:40;;;;;;;25.87;16.10;;;8.50;99.90;;;8.67;75.80;97707.16;5058500;28;20039;-44
2021/11/14 07:13:08;;;;;;;26.80;16.87;;;8.60;99.90;;;8.66;75.92;97711.59;5059661;28;20082;-43
2021/11/14 07:15:37;;;;;;;28.67;18.07;;;8.50;99.90;;;8.66;75.88;97711.59;5058755;28;20059;-43
2021/11/14 07:18:06;;;;;;;27.73;18.03;;;8.60;99.90;;;8.65;75.90;97714.44;5048978;28;20041;-46
2021/11/14 07:20:35;;;;;;;25.17;18.00;;;8.50;99.90;;;8.67;75.74;97713.28;5056854;28;20446;-44
2021/11/14 07:23:04;;;;;;;29.57;17.87;;;8.60;99.90;;;8.71;75.90;97716.50;5058699;28;20049;-44
2021/11/14 07:25:33;;;;;;;28.73;18.03;;;8.60;99.90;;;8.72;75.74;97720.81;5059461;28;20067;-44
2021/11/14 07:28:02;;;;;;;34.73;20.47;;;8.60;99.90;;;8.72;75.58;97728.75;5059552;28;20059;-45
2021/11/14 07:30:33;;;;;;;31.57;18.33;;;8.60;99.90;;;8.74;75.56;97726.81;5057449;28;20040;-44
2021/11/14 07:33:01;;;;;;;35.83;24.00;;;8.70;99.90;;;8.75;75.79;97736.44;5057633;28;20041;-44
2021/11/14 07:35:32;;;;;;;32.20;21.97;;;8.70;99.90;;;8.75;75.94;97747.06;5072963;28;20044;-46
2021/11/14 07:38:02;;;;;;;40.10;22.23;;;8.70;99.90;;;8.76;75.67;97750.53;5058524;28;20261;-44
2021/11/14 07:40:31;;;;;;;46.63;21.87;;;8.60;99.90;;;8.73;75.73;97746.38;5058511;28;20055;-45
2021/11/14 07:42:59;;;;;;;36.07;20.87;;;8.60;99.90;;;8.74;75.87;97739.25;5057075;28;20259;-47
2021/11/14 07:45:29;;;;;;;42.23;21.70;;;8.60;99.90;;;8.74;75.88;97741.91;5058409;28;20188;-45
2021/11/14 07:47:58;;;;;;;45.40;21.53;;;8.60;99.90;;;8.75;75.66;97735.63;5056832;28;20887;-48
2021/11/14 07:50:30;;;;;;;37.67;20.37;;;8.60;99.90;;;8.75;75.71;97735.63;5057454;28;20053;-46
2021/11/14 07:53:02;;;;;;;33.53;18.13;;;8.50;99.90;;;8.74;75.81;97741.91;5057338;28;20063;-45
2021/11/14 07:55:32;;;;;;;38.40;19.10;;;8.60;99.90;;;8.73;76.22;97741.06;5057980;28;20048;-46
2021/11/14 07:58:05;;;;;;;57.13;20.77;;;8.60;99.90;;;8.72;75.83;97743.88;5057671;28;20053;-47
2021/11/14 08:00:37;;;;;;;50.53;21.40;;;8.60;99.90;;;8.71;75.82;97751.00;5058308;28;20059;-44
2021/11/14 08:03:06;;;;;;;66.33;20.53;;;8.60;99.90;;;8.73;75.92;97750.84;5057455;28;20057;-46
2021/11/14 08:05:35;;;;;;;51.70;24.07;;;8.60;99.90;;;8.74;75.74;97757.81;5056918;28;20059;-48
2021/11/14 08:08:04;;;;;;;53.50;22.33;;;8.60;99.90;;;8.72;75.84;97755.31;5057842;28;20347;-45
2021/11/14 08:10:33;;;;;;;32.57;17.93;;;8.60;99.90;;;8.73;75.73;97759.66;5056723;28;20355;-46
2021/11/14 08:13:06;;;;;;;37.77;18.93;;;8.60;99.90;;;8.72;75.90;97757.97;5056917;28;20049;-48
2021/11/14 08:15:37;;;;;;;57.00;20.30;;;8.60;99.90;;;8.73;75.84;97757.00;5056667;28;20055;-44
2021/11/14 08:18:06;;;;;;;40.37;17.87;;;8.60;99.90;;;8.75;76.01;97755.03;5054219;28;20067;-44
2021/11/14 08:20:36;;;;;;;53.37;22.33;;;8.60;99.90;;;8.77;76.16;97760.19;5054033;28;20052;-43
2021/11/14 08:23:07;;;;;;;74.17;23.23;;;8.70;99.90;;;8.78;76.08;97762.72;5053536;28;20091;-44
2021/11/14 08:25:37;;;;;;;47.47;23.23;;;8.70;99.90;;;8.81;76.10;97743.81;5057774;28;20052;-45
2021/11/14 08:28:05;;;;;;;40.90;20.10;;;8.70;99.90;;;8.84;76.17;97750.63;5057734;28;20055;-43
2021/11/14 08:30:34;;;;;;;44.03;21.83;;;8.70;99.90;;;8.87;76.04;97753.00;5057366;28;20052;-43
2021/11/14 08:33:04;;;;;;;33.47;20.30;;;8.80;99.90;;;8.90;76.60;97760.69;5057549;28;20363;-44
2021/11/14 08:35:34;;;;;;;35.97;22.07;;;8.80;99.90;;;8.91;76.12;97759.69;5056925;28;20343;-43
2021/11/14 08:38:05;;;;;;;35.33;20.60;;;8.80;99.90;;;8.94;76.25;97764.72;5057607;28;20041;-44
2021/11/14 08:40:37;;;;;;;30.90;18.70;;;8.90;99.90;;;8.97;76.05;97764.41;5056627;28;20060;-44
2021/11/14 08:43:08;;;;;;;33.00;20.27;;;8.90;99.90;;;8.99;76.10;97766.91;5057170;28;20052;-46
2021/11/14 08:45:37;;;;;;;30.13;18.87;;;8.90;99.90;;;9.03;76.24;97768.28;5055076;28;20363;-44
2021/11/14 08:48:06;;;;;;;30.27;19.17;;;9.00;99.90;;;9.06;76.16;97760.88;5057225;28;20049;-44
2021/11/14 08:50:35;;;;;;;27.37;18.03;;;9.10;99.90;;;9.10;75.98;97768.56;5057889;28;20063;-44
2021/11/14 08:53:04;;;;;;;29.47;19.33;;;9.10;99.90;;;9.13;76.18;97774.41;5056949;28;20037;-43
2021/11/14 08:55:33;;;;;;;30.33;18.73;;;9.10;99.90;;;9.16;76.30;97776.75;5057350;28;20071;-43
2021/11/14 08:58:24;;;;;;;41.30;24.27;;;9.10;99.90;;;9.20;76.11;97771.97;5056164;28;20294;-45
2021/11/14 09:00:53;;;;;;;33.90;19.10;;;9.20;99.90;;;9.23;76.24;97774.34;5052912;28;20045;-46
2021/11/14 09:03:22;;;;;;;26.30;17.67;;;9.20;99.90;;;9.27;76.00;97778.38;5054299;28;20045;-44
2021/11/14 09:05:51;;;;;;;25.63;18.47;;;9.20;99.90;;;9.29;76.32;97788.84;5055780;28;20063;-45
2021/11/14 09:08:20;;;;;;;26.23;16.87;;;9.30;99.90;;;9.32;76.37;97785.88;5056530;28;20049;-45
2021/11/14 09:10:49;;;;;;;26.87;17.37;;;9.30;99.90;;;9.34;76.40;97789.22;5056535;28;20040;-44
2021/11/14 09:13:18;;;;;;;26.33;18.27;;;9.30;99.90;;;9.37;76.27;97789.75;5055708;28;20292;-47
2021/11/14 09:15:47;;;;;;;28.10;19.20;;;9.40;99.90;;;9.41;76.33;97787.66;5056339;28;20236;-44
2021/11/14 09:18:18;;;;;;;27.40;18.30;;;9.40;99.90;;;9.44;76.26;97790.84;5055621;28;20059;-44
2021/11/14 09:20:48;;;;;;;25.10;16.93;;;9.50;99.90;;;9.49;76.18;97794.88;5051741;28;20049;-46
2021/11/14 09:23:17;;;;;;;25.90;17.33;;;9.50;99.90;;;9.51;76.20;97790.25;5056272;28;20053;-45
2021/11/14 09:25:46;;;;;;;23.47;16.90;;;9.60;99.90;;;9.55;76.26;97791.59;5060862;28;20053;-47
2021/11/14 09:28:17;;;;;;;24.43;16.47;;;9.60;99.90;;;9.59;75.88;97795.63;5061445;28;20063;-45
2021/11/14 09:30:49;;;;;;;27.30;17.20;;;9.70;99.90;;;9.63;76.05;97797.00;5060933;28;20052;-47
2021/11/14 09:33:25;;;;;;;25.17;15.83;;;9.70;99.90;;;9.64;76.01;97801.34;5061393;28;20335;-44
2021/11/14 09:35:55;;;;;;;25.47;17.20;;;9.70;99.90;;;9.65;76.09;97803.84;5061536;28;20045;-46
2021/11/14 09:38:23;;;;;;;25.53;18.43;;;9.70;99.90;;;9.69;75.90;97806.19;5061574;28;20107;-46
2021/11/14 09:40:52;;;;;;;27.13;17.20;;;9.70;99.90;;;9.70;75.50;97806.03;5060930;28;20045;-44
2021/11/14 09:43:21;;;;;;;25.63;17.43;;;9.70;99.90;;;9.72;75.81;97806.72;5060267;28;20322;-45
2021/11/14 09:45:52;;;;;;;27.80;17.47;;;9.70;99.90;;;9.74;75.71;97812.72;5061507;28;20059;-43
2021/11/14 09:48:22;;;;;;;27.30;17.53;;;9.70;99.90;;;9.75;76.03;97810.88;5059780;28;20059;-45
2021/11/14 09:51:01;;;;;;;23.00;16.97;;;9.70;99.90;;;9.76;75.56;97815.22;5059096;28;20260;-43
2021/11/14 09:53:42;;;;;;;25.13;18.37;;;9.80;99.90;;;9.78;76.10;97822.06;5059783;28;20040;-45
2021/11/14 09:56:14;;;;;;;23.30;16.00;;;9.80;99.90;;;9.79;75.62;97820.22;5061464;28;20053;-45
2021/11/14 09:58:42;;;;;;;23.90;16.00;;;9.80;99.90;;;9.80;75.49;97821.91;5061357;28;20037;-43
2021/11/14 10:01:10;;;;;;;23.93;17.40;;;9.80;99.90;;;9.82;75.47;97827.91;5060999;28;20045;-45
2021/11/14 10:03:38;;;;;;;27.03;18.70;;;9.70;99.90;;;9.84;75.43;97823.28;5060945;28;20049;-45
2021/11/14 10:06:06;;;;;;;25.67;17.80;;;9.90;99.90;;;9.86;75.84;97830.09;5061008;28;20059;-45
2021/11/14 10:08:42;;;;;;;22.80;16.43;;;9.90;99.90;;;9.91;75.50;97836.81;5060968;28;20228;-45
2021/11/14 10:11:11;;;;;;;25.23;17.77;;;9.90;99.90;;;9.92;75.37;97833.16;5059506;28;20363;-47
2021/11/14 10:13:46;;;;;;;31.90;22.60;;;9.90;99.90;;;9.93;75.68;97837.50;5059762;28;20053;-46
2021/11/14 10:16:20;;;;;;;26.83;18.67;;;9.90;99.90;;;9.93;75.53;97838.34;5060036;28;20040;-43
2021/11/14 10:19:12;;;;;;;26.88;18.65;;;9.90;99.90;;;9.92;75.50;97838.47;5060488;28;20049;-46
2021/11/14 10:21:45;;;;;;;28.80;20.57;;;9.90;99.90;;;9.92;75.70;97839.31;5055729;28;20059;-48
2021/11/14 10:24:14;;;;;;;28.80;18.87;;;9.90;99.90;;;9.91;75.42;97836.81;5059796;28;20247;-44
2021/11/14 10:26:43;;;;;;;26.87;19.17;;;9.90;99.90;;;9.90;75.35;97835.97;5059198;28;20063;-46
2021/11/14 10:29:12;;;;;;;26.60;17.37;;;9.90;99.90;;;9.90;75.39;97835.97;5060542;28;20063;-44
2021/11/14 10:31:43;;;;;;;22.90;16.27;;;9.80;99.90;;;9.90;75.22;97833.31;5056633;28;20063;-46